Time;durP1;ratioP1;P1;durP2;ratioP2;P2;SDS_P1;SDS_P2;PMS_P1;PMS_P2;Temp;Humidity;BMP_temperature;BMP_pressure;BME280_temperature;BME280_humidity;BME280_pressure;Samples;Min_cycle;Max_cycle;Signal;HPM_P1;HPM_P2
2022/04/08 00:01:35;;;;;;;1.90;0.70;;;5.40;99.90;;;;;;5015648;28;20131;-60
2022/04/08 00:04:02;;;;;;;0.68;0.43;;;5.40;99.90;;;;;;5007713;28;20075;-61
2022/04/08 00:06:29;;;;;;;0.70;0.32;;;5.30;99.90;;;;;;5004205;28;20394;-60
2022/04/08 00:08:55;;;;;;;2.25;0.80;;;5.30;99.90;;;;;;5008455;28;20091;-63
2022/04/08 00:11:22;;;;;;;1.42;0.52;;;5.30;99.90;;;;;;5021691;28;20132;-61
2022/04/08 00:13:52;;;;;;;1.30;0.60;;;5.30;99.90;;;;;;5020391;28;20088;-60
2022/04/08 00:16:19;;;;;;;1.67;0.68;;;5.30;99.90;;;;;;5021479;28;20136;-61
2022/04/08 00:18:46;;;;;;;1.48;0.50;;;5.20;99.90;;;;;;5014335;28;20616;-60
2022/04/08 00:21:13;;;;;;;0.82;0.52;;;5.20;99.90;;;;;;5006715;28;20424;-61
2022/04/08 00:23:40;;;;;;;1.00;0.60;;;5.20;99.90;;;;;;5018662;28;20045;-60
2022/04/08 00:26:07;;;;;;;1.65;0.40;;;5.20;99.90;;;;;;5008169;28;20521;-60
2022/04/08 00:28:34;;;;;;;0.82;0.47;;;5.20;99.90;;;;;;5001403;28;20081;-60
2022/04/08 00:31:02;;;;;;;1.13;0.50;;;5.20;99.90;;;;;;5005355;28;20073;-60
2022/04/08 00:33:31;;;;;;;2.65;0.50;;;5.20;99.90;;;;;;5012157;28;20139;-60
2022/04/08 00:35:58;;;;;;;2.25;0.60;;;5.20;99.90;;;;;;5020525;28;20139;-60
2022/04/08 00:38:25;;;;;;;1.77;0.50;;;5.20;99.90;;;;;;5021392;28;20337;-60
2022/04/08 00:40:52;;;;;;;0.28;0.28;;;5.10;99.90;;;;;;5021349;28;20088;-60
2022/04/08 00:43:19;;;;;;;0.75;0.35;;;5.10;99.90;;;;;;5014447;28;20137;-59
2022/04/08 00:45:46;;;;;;;0.47;0.22;;;5.10;99.90;;;;;;5017944;28;20057;-60
2022/04/08 00:48:13;;;;;;;0.75;0.47;;;5.00;99.90;;;;;;5009396;28;20050;-60
2022/04/08 00:50:41;;;;;;;0.90;0.30;;;4.90;99.90;;;;;;5002457;28;20460;-60
2022/04/08 00:53:08;;;;;;;0.32;0.20;;;4.90;99.90;;;;;;5011033;28;20068;-59
2022/04/08 00:55:34;;;;;;;1.05;0.30;;;4.90;99.90;;;;;;5024485;28;20069;-60
2022/04/08 00:58:02;;;;;;;0.47;0.30;;;4.90;99.90;;;;;;5023510;28;20081;-60
2022/04/08 01:00:36;;;;;;;0.88;0.50;;;4.80;99.90;;;;;;5009001;28;20493;-60
2022/04/08 01:03:03;;;;;;;1.50;0.40;;;4.80;99.90;;;;;;5010774;28;20077;-60
2022/04/08 01:05:31;;;;;;;0.50;0.25;;;4.80;99.90;;;;;;5023824;28;20130;-60
2022/04/08 01:07:58;;;;;;;0.40;0.30;;;4.80;99.90;;;;;;5013095;28;20469;-60
2022/04/08 01:10:25;;;;;;;0.20;0.20;;;4.70;99.90;;;;;;5004485;28;20133;-60
2022/04/08 01:12:52;;;;;;;1.55;0.45;;;4.70;99.90;;;;;;5013539;28;20130;-60
2022/04/08 01:15:19;;;;;;;1.70;0.40;;;4.70;99.90;;;;;;5023397;28;20108;-60
2022/04/08 01:17:46;;;;;;;0.88;0.30;;;4.70;99.90;;;;;;5008660;28;20469;-60
2022/04/08 01:20:13;;;;;;;1.00;0.40;;;4.70;99.90;;;;;;5010834;28;20089;-60
2022/04/08 01:22:40;;;;;;;0.50;0.35;;;4.60;99.90;;;;;;5018207;28;20300;-60
2022/04/08 01:25:08;;;;;;;0.73;0.38;;;4.60;99.90;;;;;;5017068;28;20414;-60
2022/04/08 01:27:38;;;;;;;1.13;0.68;;;4.60;99.90;;;;;;5005056;28;20054;-59
2022/04/08 01:30:06;;;;;;;0.60;0.30;;;4.50;99.90;;;;;;5021813;28;20107;-60
2022/04/08 01:32:32;;;;;;;0.50;0.40;;;4.50;99.90;;;;;;5008020;28;20077;-60
2022/04/08 01:34:59;;;;;;;2.85;0.60;;;4.50;99.90;;;;;;5005307;28;20085;-60
2022/04/08 01:37:26;;;;;;;0.95;0.50;;;4.50;99.90;;;;;;5006647;28;20046;-60
2022/04/08 01:39:53;;;;;;;1.00;0.35;;;4.50;99.90;;;;;;5009625;28;20192;-59
2022/04/08 01:42:24;;;;;;;2.35;0.55;;;4.50;99.90;;;;;;5021050;28;20099;-60
2022/04/08 01:44:54;;;;;;;1.02;0.50;;;4.50;99.90;;;;;;5010748;28;20056;-60
2022/04/08 01:47:22;;;;;;;0.98;0.60;;;4.60;99.90;;;;;;5007782;28;20165;-60
2022/04/08 01:49:48;;;;;;;1.58;0.50;;;4.50;99.90;;;;;;5024083;28;20452;-60
2022/04/08 01:52:15;;;;;;;1.38;0.60;;;4.50;99.90;;;;;;5026423;28;20726;-61
2022/04/08 01:54:42;;;;;;;1.80;0.95;;;4.60;99.90;;;;;;5008548;28;20450;-60
2022/04/08 01:57:09;;;;;;;2.42;0.50;;;4.50;99.90;;;;;;5007981;28;20092;-59
2022/04/08 01:59:36;;;;;;;2.05;0.63;;;4.50;99.90;;;;;;5007665;28;20054;-60
2022/04/08 02:02:03;;;;;;;0.95;0.50;;;4.50;99.90;;;;;;5014577;28;20128;-60
2022/04/08 02:04:29;;;;;;;1.80;0.70;;;4.50;99.90;;;;;;5013197;28;20056;-60
2022/04/08 02:06:56;;;;;;;1.63;0.60;;;4.50;99.90;;;;;;5007815;28;20145;-60
2022/04/08 02:09:23;;;;;;;2.83;0.93;;;4.50;99.90;;;;;;5025299;28;20426;-60
2022/04/08 02:11:50;;;;;;;2.28;0.98;;;4.50;99.90;;;;;;5016021;28;20093;-60
2022/04/08 02:14:17;;;;;;;1.02;0.50;;;4.50;99.90;;;;;;5008770;28;20455;-59
2022/04/08 02:16:44;;;;;;;2.13;0.70;;;4.60;99.90;;;;;;5006453;28;20045;-60
2022/04/08 02:19:11;;;;;;;1.88;0.60;;;4.60;99.90;;;;;;5006360;28;20046;-60
2022/04/08 02:21:38;;;;;;;2.08;0.77;;;4.60;99.90;;;;;;5011517;28;20136;-60
2022/04/08 02:24:05;;;;;;;2.38;0.80;;;4.60;99.90;;;;;;5024791;28;20091;-60
2022/04/08 02:26:32;;;;;;;1.08;0.55;;;4.70;99.90;;;;;;5017259;28;20084;-60
2022/04/08 02:28:59;;;;;;;1.38;0.60;;;4.70;99.90;;;;;;5014411;28;20476;-60
2022/04/08 02:31:26;;;;;;;0.95;0.50;;;4.70;99.90;;;;;;5012938;28;20128;-60
2022/04/08 02:33:52;;;;;;;1.73;0.75;;;4.70;99.90;;;;;;5020900;28;20433;-60
2022/04/08 02:36:19;;;;;;;1.02;0.50;;;4.70;99.90;;;;;;5025851;28;20080;-59
2022/04/08 02:38:46;;;;;;;1.13;0.55;;;4.80;99.90;;;;;;5012115;28;20104;-60
2022/04/08 02:41:12;;;;;;;1.40;0.60;;;4.80;99.90;;;;;;5007083;28;20493;-60
2022/04/08 02:43:39;;;;;;;1.42;0.68;;;4.80;99.90;;;;;;5019928;28;20128;-60
2022/04/08 02:46:06;;;;;;;0.80;0.55;;;4.80;99.90;;;;;;5014830;28;20148;-60
2022/04/08 02:48:33;;;;;;;1.13;0.60;;;4.90;99.90;;;;;;5010474;28;20045;-60
2022/04/08 02:50:59;;;;;;;2.53;0.55;;;4.80;99.90;;;;;;5005520;28;20170;-60
2022/04/08 02:53:26;;;;;;;1.33;0.45;;;4.90;99.90;;;;;;5017770;28;20069;-60
2022/04/08 02:55:53;;;;;;;0.80;0.40;;;4.90;99.90;;;;;;5021380;28;20080;-60
2022/04/08 02:58:20;;;;;;;2.85;0.60;;;4.90;99.90;;;;;;5017324;28;20081;-60
2022/04/08 03:00:46;;;;;;;1.88;0.80;;;4.80;99.90;;;;;;5005202;28;20046;-60
2022/04/08 03:03:13;;;;;;;1.08;0.43;;;4.80;99.90;;;;;;5019958;28;20073;-59
2022/04/08 03:05:40;;;;;;;0.75;0.38;;;4.80;99.90;;;;;;5007876;28;20437;-60
2022/04/08 03:08:07;;;;;;;1.08;0.50;;;4.80;99.90;;;;;;5006780;28;20089;-60
2022/04/08 03:10:33;;;;;;;1.25;0.57;;;4.70;99.90;;;;;;5007220;28;20583;-60
2022/04/08 03:13:00;;;;;;;1.23;0.65;;;4.70;99.90;;;;;;5013084;28;20080;-60
2022/04/08 03:15:27;;;;;;;1.52;0.50;;;4.60;99.90;;;;;;5011982;28;20358;-60
2022/04/08 03:17:54;;;;;;;1.15;0.60;;;4.60;99.90;;;;;;5019043;28;20132;-61
2022/04/08 03:20:20;;;;;;;1.35;0.55;;;4.60;99.90;;;;;;5013035;28;20046;-60
2022/04/08 03:22:47;;;;;;;2.08;0.55;;;4.60;99.90;;;;;;5022639;28;20577;-60
2022/04/08 03:25:14;;;;;;;1.88;0.63;;;4.60;99.90;;;;;;5024776;28;20072;-60
2022/04/08 03:27:41;;;;;;;0.88;0.50;;;4.60;99.90;;;;;;5021463;28;20084;-60
2022/04/08 03:30:08;;;;;;;1.55;0.50;;;4.60;99.90;;;;;;5023803;28;20625;-60
2022/04/08 03:32:35;;;;;;;1.33;0.70;;;4.60;99.90;;;;;;5009959;28;20168;-60
2022/04/08 03:35:02;;;;;;;1.08;0.63;;;4.60;99.90;;;;;;5015460;28;20133;-60
2022/04/08 03:37:29;;;;;;;1.35;0.40;;;4.60;99.90;;;;;;5006060;28;20085;-60
2022/04/08 03:39:56;;;;;;;1.48;0.95;;;4.60;99.90;;;;;;5007029;28;20133;-60
2022/04/08 03:42:23;;;;;;;1.35;0.50;;;4.60;99.90;;;;;;5015241;28;20136;-60
2022/04/08 03:44:51;;;;;;;0.73;0.45;;;4.50;99.90;;;;;;5021443;28;20145;-60
2022/04/08 03:47:21;;;;;;;1.77;0.50;;;4.50;99.90;;;;;;5009726;28;20075;-59
2022/04/08 03:49:48;;;;;;;0.68;0.40;;;4.50;99.90;;;;;;5020107;28;20136;-60
2022/04/08 03:52:15;;;;;;;1.77;0.70;;;4.60;99.90;;;;;;5025280;28;20111;-60
2022/04/08 03:54:41;;;;;;;1.73;0.75;;;4.60;99.90;;;;;;5009938;28;20050;-60
2022/04/08 03:57:08;;;;;;;2.10;0.60;;;4.60;99.90;;;;;;5008055;28;20289;-60
2022/04/08 03:59:40;;;;;;;2.33;0.93;;;4.60;99.90;;;;;;5024503;28;20103;-60
2022/04/08 04:02:07;;;;;;;0.80;0.50;;;4.60;99.90;;;;;;5024691;28;20599;-60
2022/04/08 04:04:34;;;;;;;2.42;0.65;;;4.60;99.90;;;;;;5023011;28;20046;-60
2022/04/08 04:07:01;;;;;;;1.38;0.63;;;4.60;99.90;;;;;;5024513;28;20485;-60
2022/04/08 04:09:28;;;;;;;1.25;0.47;;;4.60;99.90;;;;;;5025689;28;20041;-60
2022/04/08 04:11:55;;;;;;;0.73;0.43;;;4.60;99.90;;;;;;5025949;28;20088;-60
2022/04/08 04:14:22;;;;;;;2.10;0.65;;;4.60;99.90;;;;;;5024206;28;20096;-59
2022/04/08 04:16:48;;;;;;;1.38;0.60;;;4.60;99.90;;;;;;5024290;28;20155;-60
2022/04/08 04:19:16;;;;;;;2.85;0.73;;;4.60;99.90;;;;;;5004814;28;20054;-60
2022/04/08 04:21:43;;;;;;;3.80;1.20;;;4.60;99.90;;;;;;5007799;28;20096;-60
2022/04/08 04:24:10;;;;;;;1.13;0.50;;;4.60;99.90;;;;;;5019435;28;20504;-60
2022/04/08 04:26:37;;;;;;;2.80;0.82;;;4.60;99.90;;;;;;5025585;28;20146;-60
2022/04/08 04:29:03;;;;;;;1.13;0.60;;;4.60;99.90;;;;;;5025834;28;20328;-60
2022/04/08 04:31:30;;;;;;;3.15;0.95;;;4.60;99.90;;;;;;5009652;28;20137;-60
2022/04/08 04:33:57;;;;;;;0.95;0.50;;;4.60;99.90;;;;;;5021835;28;20052;-60
2022/04/08 04:36:24;;;;;;;0.63;0.45;;;4.50;99.90;;;;;;5028394;28;20419;-60
2022/04/08 04:38:51;;;;;;;1.33;0.60;;;4.50;99.90;;;;;;5028765;28;20156;-60
2022/04/08 04:41:18;;;;;;;1.95;0.68;;;4.50;99.90;;;;;;5029207;28;20077;-60
2022/04/08 04:43:44;;;;;;;1.60;0.80;;;4.50;99.90;;;;;;5023309;28;20053;-59
2022/04/08 04:46:11;;;;;;;1.90;0.73;;;4.50;99.90;;;;;;5029194;28;20121;-60
2022/04/08 04:48:38;;;;;;;0.75;0.50;;;4.60;99.90;;;;;;5009243;28;20057;-60
2022/04/08 04:51:04;;;;;;;1.55;0.80;;;4.60;99.90;;;;;;5007123;28;20077;-60
2022/04/08 04:53:31;;;;;;;1.30;0.73;;;4.60;99.90;;;;;;5014247;28;20050;-60
2022/04/08 04:55:58;;;;;;;1.98;0.60;;;4.60;99.90;;;;;;5026437;28;20046;-59
2022/04/08 04:58:25;;;;;;;1.73;0.60;;;4.60;99.90;;;;;;5022975;28;20132;-60
2022/04/08 05:00:52;;;;;;;1.50;0.60;;;4.60;99.90;;;;;;5024753;28;20096;-60
2022/04/08 05:03:19;;;;;;;1.35;0.80;;;4.70;99.90;;;;;;5023391;28;20148;-60
2022/04/08 05:05:47;;;;;;;2.50;0.65;;;4.70;99.90;;;;;;5023693;28;20148;-60
2022/04/08 05:08:14;;;;;;;1.35;0.90;;;4.70;99.90;;;;;;5010355;28;20116;-60
2022/04/08 05:10:41;;;;;;;0.85;0.50;;;4.70;99.90;;;;;;5021616;28;20073;-60
2022/04/08 05:13:08;;;;;;;0.57;0.40;;;4.80;99.90;;;;;;5021014;28;20148;-60
2022/04/08 05:15:38;;;;;;;1.92;0.60;;;4.70;99.90;;;;;;5021385;28;20053;-59
2022/04/08 05:18:05;;;;;;;0.68;0.40;;;4.70;99.90;;;;;;5021538;28;20579;-60
2022/04/08 05:20:32;;;;;;;0.73;0.50;;;4.70;99.90;;;;;;5023484;28;20061;-60
2022/04/08 05:22:59;;;;;;;2.13;0.80;;;4.80;99.90;;;;;;5024903;28;20067;-60
2022/04/08 05:25:25;;;;;;;1.70;0.68;;;4.80;99.90;;;;;;5020455;28;20053;-60
2022/04/08 05:27:54;;;;;;;1.52;0.82;;;4.80;99.90;;;;;;5023076;28;20385;-60
2022/04/08 05:30:21;;;;;;;1.38;0.57;;;4.80;99.90;;;;;;5017485;28;20140;-60
2022/04/08 05:32:48;;;;;;;1.48;0.63;;;4.80;99.90;;;;;;5011847;28;20138;-60
2022/04/08 05:35:18;;;;;;;1.27;0.70;;;4.80;99.90;;;;;;5020816;28;20521;-60
2022/04/08 05:37:46;;;;;;;1.88;0.60;;;4.80;99.90;;;;;;5010811;28;20221;-60
2022/04/08 05:40:16;;;;;;;1.40;0.73;;;4.80;99.90;;;;;;5015455;28;20092;-61
2022/04/08 05:42:44;;;;;;;1.17;0.60;;;4.80;99.90;;;;;;5016932;28;20050;-60
2022/04/08 05:45:11;;;;;;;2.33;1.20;;;4.90;99.90;;;;;;5015375;28;20168;-60
2022/04/08 05:47:38;;;;;;;1.10;0.60;;;4.80;99.90;;;;;;5007775;28;20108;-61
2022/04/08 05:50:06;;;;;;;1.48;0.65;;;4.80;99.90;;;;;;5008238;28;20049;-60
2022/04/08 05:52:33;;;;;;;0.93;0.68;;;4.90;99.90;;;;;;5007711;28;20973;-60
2022/04/08 05:54:59;;;;;;;0.95;0.60;;;4.90;99.90;;;;;;5021564;28;20069;-60
2022/04/08 05:57:26;;;;;;;0.70;0.40;;;4.90;99.90;;;;;;5015079;28;20085;-59
2022/04/08 05:59:58;;;;;;;0.70;0.57;;;4.90;99.90;;;;;;5006217;28;20197;-59
2022/04/08 06:02:25;;;;;;;0.83;0.47;;;4.90;99.90;;;;;;5006876;28;20057;-59
2022/04/08 06:04:52;;;;;;;2.58;1.00;;;5.00;99.90;;;;;;5017215;28;20046;-58
2022/04/08 06:07:21;;;;;;;1.30;0.70;;;5.00;99.90;;;;;;5007505;28;20468;-59
2022/04/08 06:09:48;;;;;;;0.90;0.45;;;5.00;99.90;;;;;;5021020;28;20456;-59
2022/04/08 06:12:15;;;;;;;0.65;0.43;;;5.00;99.90;;;;;;5019959;28;20650;-56
2022/04/08 06:14:42;;;;;;;1.23;0.52;;;5.00;99.90;;;;;;5020523;28;20136;-58
2022/04/08 06:17:08;;;;;;;1.02;0.70;;;5.10;99.90;;;;;;5008212;28;20594;-58
2022/04/08 06:19:35;;;;;;;0.98;0.57;;;5.20;99.90;;;;;;5006746;28;20127;-59
2022/04/08 06:22:02;;;;;;;0.57;0.40;;;5.20;99.90;;;;;;5018175;28;20481;-59
2022/04/08 06:24:29;;;;;;;1.83;0.60;;;5.30;99.90;;;;;;5014390;28;20135;-59
2022/04/08 06:26:55;;;;;;;0.65;0.50;;;5.40;99.90;;;;;;5007740;28;20124;-59
2022/04/08 06:29:22;;;;;;;1.83;0.68;;;5.40;99.90;;;;;;5019002;28;20402;-59
2022/04/08 06:31:49;;;;;;;1.45;0.63;;;5.50;99.90;;;;;;5018137;28;20140;-59
2022/04/08 06:34:16;;;;;;;0.95;0.60;;;5.60;99.90;;;;;;5018461;28;20525;-59
2022/04/08 06:36:43;;;;;;;1.33;0.88;;;5.60;99.90;;;;;;5017403;28;20136;-59
2022/04/08 06:39:10;;;;;;;1.15;0.45;;;5.70;99.90;;;;;;5018495;28;20130;-59
2022/04/08 06:41:36;;;;;;;0.45;0.40;;;5.70;99.90;;;;;;5019884;28;20057;-59
2022/04/08 06:44:03;;;;;;;3.10;1.35;;;5.70;99.90;;;;;;5018935;28;20060;-59
2022/04/08 06:46:30;;;;;;;1.13;0.50;;;5.80;99.90;;;;;;5019660;28;20133;-59
2022/04/08 06:49:02;;;;;;;1.35;0.80;;;5.90;99.90;;;;;;5018399;28;20136;-59
2022/04/08 06:51:30;;;;;;;1.23;0.50;;;6.00;99.90;;;;;;5019258;28;20429;-59
2022/04/08 06:53:57;;;;;;;1.00;0.63;;;6.00;99.90;;;;;;5019674;28;20473;-59
2022/04/08 06:56:24;;;;;;;1.23;0.60;;;6.10;99.90;;;;;;5019763;28;20060;-59
2022/04/08 06:58:50;;;;;;;2.25;0.80;;;6.20;99.90;;;;;;5019749;28;20089;-59
2022/04/08 07:01:17;;;;;;;2.30;0.80;;;6.30;99.90;;;;;;5018582;28;20145;-59
2022/04/08 07:03:44;;;;;;;1.83;0.65;;;6.30;99.90;;;;;;5016953;28;20136;-59
2022/04/08 07:06:11;;;;;;;1.80;0.90;;;6.40;99.90;;;;;;5019203;28;20473;-58
2022/04/08 07:08:38;;;;;;;1.67;1.00;;;6.40;99.90;;;;;;5019481;28;20049;-59
2022/04/08 07:11:04;;;;;;;1.38;0.65;;;6.50;99.90;;;;;;5019608;28;20181;-59
2022/04/08 07:13:31;;;;;;;2.47;0.70;;;6.60;99.90;;;;;;5018603;28;20469;-59
2022/04/08 07:15:58;;;;;;;1.33;0.55;;;6.60;99.90;;;;;;5019793;28;20172;-59
2022/04/08 07:18:25;;;;;;;0.57;0.47;;;6.70;99.90;;;;;;5017741;28;20259;-59
2022/04/08 07:20:51;;;;;;;0.93;0.63;;;6.70;99.90;;;;;;5019319;28;20140;-59
2022/04/08 07:23:18;;;;;;;1.00;0.55;;;6.80;99.90;;;;;;5018781;28;20149;-59
2022/04/08 07:25:45;;;;;;;2.58;0.85;;;6.90;99.90;;;;;;5018677;28;20077;-59
2022/04/08 07:28:12;;;;;;;2.40;0.73;;;6.90;99.90;;;;;;5018139;28;20479;-59
2022/04/08 07:30:39;;;;;;;1.25;0.77;;;7.00;99.90;;;;;;5018238;28;20081;-59
2022/04/08 07:33:05;;;;;;;1.38;0.50;;;7.00;99.90;;;;;;5017591;28;20089;-59
2022/04/08 07:35:33;;;;;;;1.30;0.47;;;7.00;99.90;;;;;;5018597;28;20137;-59
2022/04/08 07:38:00;;;;;;;1.00;0.60;;;7.00;99.90;;;;;;5016701;28;20062;-59
2022/04/08 07:40:27;;;;;;;1.75;0.70;;;7.00;99.90;;;;;;5018976;28;20053;-59
2022/04/08 07:42:54;;;;;;;1.90;0.80;;;7.00;99.90;;;;;;5017671;28;20136;-59
2022/04/08 07:45:24;;;;;;;1.48;1.00;;;7.00;99.90;;;;;;5019422;28;20527;-59
2022/04/08 07:47:51;;;;;;;1.02;0.70;;;7.10;99.90;;;;;;5017200;28;20147;-58
2022/04/08 07:50:18;;;;;;;2.08;1.00;;;7.10;99.90;;;;;;5017605;28;20211;-59
2022/04/08 07:52:45;;;;;;;1.17;0.68;;;7.10;99.90;;;;;;5017065;28;20057;-59
2022/04/08 07:55:13;;;;;;;1.80;0.85;;;7.10;99.90;;;;;;5018812;28;20042;-59
2022/04/08 07:57:44;;;;;;;1.63;0.90;;;7.20;99.90;;;;;;5018341;28;20219;-59
2022/04/08 08:00:12;;;;;;;2.20;1.13;;;7.20;99.90;;;;;;5016446;28;20141;-59
2022/04/08 08:02:40;;;;;;;1.25;0.60;;;7.20;99.90;;;;;;5017221;28;20053;-59
2022/04/08 08:05:07;;;;;;;3.63;0.70;;;7.20;99.90;;;;;;5016878;28;20393;-58
2022/04/08 08:08:05;;;;;;;1.13;0.75;;;7.30;99.90;;;;;;5017556;28;20664;-59
2022/04/08 08:10:35;;;;;;;1.23;0.65;;;7.30;99.90;;;;;;5001748;28;20137;-59
2022/04/08 08:13:02;;;;;;;1.13;0.65;;;7.40;99.90;;;;;;5005778;28;20145;-59
2022/04/08 08:15:30;;;;;;;2.30;0.77;;;7.50;99.90;;;;;;5017434;28;20080;-59
2022/04/08 08:17:58;;;;;;;1.73;0.82;;;7.50;99.90;;;;;;5017075;28;20109;-59
2022/04/08 08:20:25;;;;;;;1.00;0.55;;;7.60;99.90;;;;;;5016547;28;20140;-59
2022/04/08 08:22:52;;;;;;;1.27;0.63;;;7.70;99.90;;;;;;5018266;28;20117;-59
2022/04/08 08:25:19;;;;;;;2.00;0.80;;;7.90;99.90;;;;;;5018379;28;20128;-59
2022/04/08 08:27:51;;;;;;;1.15;0.55;;;8.00;99.90;;;;;;5017738;28;20433;-59
2022/04/08 08:30:18;;;;;;;0.82;0.70;;;8.30;99.90;;;;;;5018071;28;20130;-59
2022/04/08 08:32:46;;;;;;;1.50;0.70;;;8.40;99.90;;;;;;5016438;28;20160;-59
2022/04/08 08:35:14;;;;;;;2.35;0.80;;;8.50;99.90;;;;;;5018316;28;20127;-59
2022/04/08 08:37:41;;;;;;;1.98;0.80;;;8.60;99.90;;;;;;5015900;28;20314;-59
2022/04/08 08:40:11;;;;;;;1.58;0.80;;;8.70;99.90;;;;;;5018050;28;20219;-59
2022/04/08 08:42:38;;;;;;;2.05;0.60;;;8.70;99.90;;;;;;5017147;28;20096;-59
2022/04/08 08:45:06;;;;;;;3.92;1.00;;;8.70;99.90;;;;;;5017647;28;20142;-59
2022/04/08 08:47:33;;;;;;;1.45;0.80;;;8.70;99.90;;;;;;5017247;28;20046;-59
2022/04/08 08:50:00;;;;;;;1.42;0.85;;;8.70;99.90;;;;;;5016850;28;20169;-59
2022/04/08 08:52:26;;;;;;;2.50;0.80;;;8.70;99.90;;;;;;5017932;28;20056;-59
2022/04/08 08:54:54;;;;;;;2.30;0.90;;;8.70;99.90;;;;;;5016480;28;20449;-59
2022/04/08 08:57:21;;;;;;;1.40;0.68;;;8.60;99.90;;;;;;5015840;28;20196;-59
2022/04/08 08:59:51;;;;;;;2.78;0.85;;;8.60;99.90;;;;;;5017096;28;20224;-59
2022/04/08 09:02:19;;;;;;;1.77;1.20;;;8.60;99.90;;;;;;5016634;28;20131;-58
2022/04/08 09:04:46;;;;;;;1.23;0.80;;;8.60;99.90;;;;;;5017170;28;20452;-58
2022/04/08 09:07:27;;;;;;;2.28;1.30;;;8.60;99.90;;;;;;5016096;28;20053;-59
2022/04/08 09:09:56;;;;;;;1.88;0.88;;;8.70;99.90;;;;;;5020288;28;20119;-59
2022/04/08 09:12:24;;;;;;;2.45;1.33;;;8.80;99.90;;;;;;5018868;28;20053;-58
2022/04/08 09:14:55;;;;;;;3.22;1.13;;;8.80;99.90;;;;;;5020182;28;20077;-59
2022/04/08 09:17:23;;;;;;;2.42;0.90;;;8.80;99.90;;;;;;5025654;28;20128;-59
2022/04/08 09:19:51;;;;;;;2.17;0.90;;;8.90;99.90;;;;;;5025450;28;20132;-60
2022/04/08 09:22:19;;;;;;;2.35;0.93;;;8.90;99.90;;;;;;5026031;28;20137;-59
2022/04/08 09:24:45;;;;;;;4.28;1.20;;;8.90;99.90;;;;;;5024919;28;20148;-59
2022/04/08 09:27:12;;;;;;;3.03;0.90;;;8.90;99.90;;;;;;5022959;28;20134;-58
2022/04/08 09:29:43;;;;;;;2.35;1.05;;;9.00;99.90;;;;;;5026574;28;20077;-59
2022/04/08 09:32:30;;;;;;;2.67;1.15;;;9.00;99.90;;;;;;5026858;28;20057;-59
2022/04/08 09:34:57;;;;;;;2.40;1.20;;;9.10;99.90;;;;;;5027239;28;20048;-59
2022/04/08 09:37:24;;;;;;;1.67;0.80;;;9.20;99.90;;;;;;5027641;28;20115;-58
2022/04/08 09:39:59;;;;;;;1.63;0.75;;;9.20;99.90;;;;;;5027247;28;20124;-59
2022/04/08 09:42:43;;;;;;;2.10;1.33;;;9.30;99.90;;;;;;5025342;28;20121;-58
2022/04/08 09:45:14;;;;;;;3.72;1.17;;;9.30;99.90;;;;;;5025689;28;20408;-59
2022/04/08 09:47:41;;;;;;;3.83;1.17;;;9.30;99.90;;;;;;5026869;28;20091;-59
2022/04/08 09:50:10;;;;;;;2.65;1.10;;;9.40;99.90;;;;;;5025543;28;20527;-59
2022/04/08 09:52:40;;;;;;;3.10;1.00;;;9.40;99.90;;;;;;5027598;28;20069;-59
2022/04/08 09:55:07;;;;;;;3.67;1.00;;;9.50;99.90;;;;;;5024137;28;20051;-59
2022/04/08 09:57:37;;;;;;;2.92;0.95;;;9.50;99.90;;;;;;5022220;28;20049;-59
2022/04/08 10:00:04;;;;;;;2.65;1.00;;;9.60;99.90;;;;;;5025668;28;20088;-59
2022/04/08 10:02:33;;;;;;;3.15;1.08;;;9.60;99.90;;;;;;5024825;28;20144;-59
2022/04/08 10:05:10;;;;;;;3.42;1.60;;;9.70;99.90;;;;;;5025483;28;20068;-58
2022/04/08 10:07:38;;;;;;;1.95;1.15;;;9.70;99.90;;;;;;5027275;28;20063;-58
2022/04/08 10:10:26;;;;;;;5.00;1.30;;;9.70;99.90;;;;;;5025340;28;20492;-58
2022/04/08 10:13:23;;;;;;;1.92;1.13;;;9.60;99.90;;;;;;5022044;28;20140;-59
2022/04/08 10:16:13;;;;;;;2.90;1.17;;;9.70;99.90;;;;;;5023120;28;20172;-58
2022/04/08 10:18:41;;;;;;;3.13;1.33;;;9.80;99.90;;;;;;5020426;28;20104;-59
2022/04/08 10:21:10;;;;;;;3.35;1.45;;;9.80;99.90;;;;;;5021978;28;20081;-58
2022/04/08 10:23:45;;;;;;;3.25;1.20;;;9.90;99.90;;;;;;5002177;28;20050;-59
2022/04/08 10:26:17;;;;;;;2.97;1.25;;;9.90;99.90;;;;;;5001328;28;20049;-58
2022/04/08 10:28:44;;;;;;;3.30;1.60;;;10.00;99.90;;;;;;5004565;28;20082;-58
2022/04/08 10:31:15;;;;;;;2.08;1.10;;;10.10;99.90;;;;;;5024400;28;20497;-59
2022/04/08 10:33:52;;;;;;;4.22;1.50;;;10.20;99.90;;;;;;5025300;28;20049;-59
2022/04/08 10:36:19;;;;;;;3.97;1.27;;;10.30;99.90;;;;;;5025954;28;20539;-58
2022/04/08 10:38:45;;;;;;;3.58;1.40;;;10.40;99.90;;;;;;5024038;28;20145;-59
2022/04/08 10:41:13;;;;;;;2.85;1.08;;;10.50;99.90;;;;;;5025823;28;20145;-58
2022/04/08 10:43:48;;;;;;;3.28;1.20;;;10.50;99.90;;;;;;5024285;28;20080;-58
2022/04/08 10:46:29;;;;;;;3.65;1.52;;;10.50;99.90;;;;;;5024458;28;20081;-58
2022/04/08 10:48:59;;;;;;;4.57;1.63;;;10.50;99.90;;;;;;5023465;28;20072;-58
2022/04/08 10:51:31;;;;;;;3.50;1.65;;;10.50;99.90;;;;;;5021718;28;20095;-58
2022/04/08 10:54:03;;;;;;;3.83;1.50;;;10.70;99.90;;;;;;5021871;28;20053;-58
2022/04/08 10:56:37;;;;;;;2.00;1.15;;;10.90;99.90;;;;;;5023220;28;20514;-58
2022/04/08 10:59:03;;;;;;;4.97;2.15;;;10.90;99.90;;;;;;5021034;28;20188;-61
2022/04/08 11:01:34;;;;;;;2.97;1.30;;;10.90;99.90;;;;;;5020346;28;20053;-58
2022/04/08 11:04:05;;;;;;;3.63;1.30;;;10.90;99.90;;;;;;5017767;28;21260;-58
2022/04/08 11:06:36;;;;;;;2.60;1.10;;;11.00;99.90;;;;;;5004468;28;20042;-58
2022/04/08 11:09:07;;;;;;;3.03;1.55;;;11.00;99.90;;;;;;5016601;28;20081;-58
2022/04/08 11:11:36;;;;;;;3.05;1.20;;;11.00;99.90;;;;;;5023238;28;20412;-58
2022/04/08 11:14:03;;;;;;;2.92;1.60;;;11.10;99.90;;;;;;5028093;28;20089;-58
2022/04/08 11:16:32;;;;;;;3.08;1.50;;;11.20;99.90;;;;;;5039420;28;20120;-58
2022/04/08 11:19:00;;;;;;;2.92;1.35;;;11.40;99.90;;;;;;5024089;28;20045;-59
2022/04/08 11:21:28;;;;;;;1.95;1.30;;;11.60;99.90;;;;;;5012419;28;20131;-58
2022/04/08 11:23:59;;;;;;;5.97;1.67;;;11.90;99.90;;;;;;5005500;28;20061;-59
2022/04/08 11:26:29;;;;;;;3.72;1.55;;;12.00;99.90;;;;;;5002601;28;20970;-59
2022/04/08 11:29:12;;;;;;;2.67;1.40;;;12.20;99.90;;;;;;5004795;28;20132;-58
2022/04/08 11:31:39;;;;;;;4.95;1.80;;;12.30;99.90;;;;;;5023979;28;20169;-57
2022/04/08 11:34:06;;;;;;;3.30;1.35;;;12.30;99.90;;;;;;5020615;28;20456;-58
2022/04/08 11:36:34;;;;;;;2.80;1.27;;;12.30;99.90;;;;;;5022683;28;20049;-58
2022/04/08 11:39:02;;;;;;;1.98;1.15;;;12.50;99.90;;;;;;5024458;28;20516;-58
2022/04/08 11:41:37;;;;;;;3.72;1.70;;;12.50;99.90;;;;;;5023908;28;20102;-58
2022/04/08 11:44:04;;;;;;;4.22;1.63;;;12.30;99.90;;;;;;5021917;28;20119;-59
2022/04/08 11:46:31;;;;;;;3.08;1.38;;;12.40;99.90;;;;;;5021376;28;20081;-59
2022/04/08 11:48:58;;;;;;;3.72;1.25;;;12.40;99.90;;;;;;5021332;28;20354;-58
2022/04/08 11:51:25;;;;;;;3.40;1.40;;;12.40;99.90;;;;;;5020492;28;20207;-58
2022/04/08 11:53:52;;;;;;;4.00;1.23;;;12.30;99.90;;;;;;5019917;28;20797;-59
2022/04/08 11:56:24;;;;;;;2.42;0.73;;;12.40;99.90;;;;;;5021556;28;20136;-59
2022/04/08 11:58:55;;;;;;;3.85;1.30;;;12.50;99.90;;;;;;5016140;28;20089;-58
2022/04/08 12:01:22;;;;;;;2.08;1.33;;;12.70;99.90;;;;;;5019494;28;20140;-59
2022/04/08 12:03:51;;;;;;;4.40;1.40;;;12.80;99.90;;;;;;5017049;28;20052;-59
2022/04/08 12:06:18;;;;;;;2.28;1.00;;;13.00;99.90;;;;;;5013257;28;20140;-59
2022/04/08 12:08:48;;;;;;;2.72;1.33;;;13.10;99.90;;;;;;5025540;28;20053;-59
2022/04/08 12:11:15;;;;;;;1.92;0.95;;;13.10;98.80;;;;;;5025635;28;20485;-57
2022/04/08 12:13:42;;;;;;;2.75;1.00;;;13.40;99.10;;;;;;5029813;28;20045;-58
2022/04/08 12:16:11;;;;;;;1.70;1.10;;;13.80;98.70;;;;;;5019802;28;20552;-58
2022/04/08 12:18:46;;;;;;;2.95;1.20;;;14.10;98.90;;;;;;5015268;28;20143;-58
2022/04/08 12:21:14;;;;;;;2.67;1.00;;;14.20;98.80;;;;;;4998467;28;20350;-59
2022/04/08 12:23:41;;;;;;;1.83;0.90;;;14.20;97.80;;;;;;5014380;28;20578;-59
2022/04/08 12:26:08;;;;;;;2.15;1.02;;;14.00;97.10;;;;;;5001789;28;20141;-59
2022/04/08 12:28:35;;;;;;;2.42;0.98;;;13.80;98.20;;;;;;4999496;28;20479;-59
2022/04/08 12:31:14;;;;;;;1.95;1.02;;;13.70;98.30;;;;;;5008933;28;20053;-58
2022/04/08 12:33:42;;;;;;;2.97;1.40;;;13.80;96.80;;;;;;5017655;28;20515;-59
2022/04/08 12:36:09;;;;;;;3.55;1.50;;;13.60;97.30;;;;;;5006830;28;20140;-59
2022/04/08 12:38:40;;;;;;;3.92;1.10;;;13.90;95.80;;;;;;5011476;28;20111;-59
2022/04/08 12:41:07;;;;;;;2.10;1.10;;;14.40;96.60;;;;;;5006556;28;20177;-59
2022/04/08 12:43:34;;;;;;;1.98;0.90;;;14.70;95.60;;;;;;5019253;28;20145;-59
2022/04/08 12:46:00;;;;;;;1.63;1.00;;;14.80;94.10;;;;;;5021775;28;20512;-60
2022/04/08 12:48:27;;;;;;;2.33;1.17;;;14.80;95.20;;;;;;5012854;28;20107;-59
2022/04/08 12:50:56;;;;;;;3.22;1.20;;;14.60;91.70;;;;;;5024149;28;20080;-59
2022/04/08 12:53:23;;;;;;;3.40;1.08;;;14.50;92.70;;;;;;5024839;28;20073;-59
2022/04/08 12:55:50;;;;;;;2.13;0.98;;;14.20;92.30;;;;;;5005482;28;20124;-59
2022/04/08 12:58:16;;;;;;;2.45;0.90;;;14.10;94.60;;;;;;5003763;28;20092;-59
2022/04/08 13:00:43;;;;;;;2.45;1.02;;;14.10;92.40;;;;;;5012177;28;20128;-59